createdAt,value
2022-09-04T00:00:54.879Z,0.00
2022-09-04T00:01:54.885Z,0.00
2022-09-04T00:02:54.857Z,0.00
2022-09-04T00:03:54.948Z,0.00
2022-09-04T00:04:55.064Z,0.00
2022-09-04T00:05:54.822Z,0.00
2022-09-04T00:06:54.812Z,0.00
2022-09-04T00:07:54.798Z,0.00
2022-09-04T00:08:54.823Z,0.00
2022-09-04T00:09:54.798Z,0.00
2022-09-04T00:10:54.766Z,0.00
2022-09-04T00:11:54.753Z,0.00
2022-09-04T00:12:54.743Z,0.00
2022-09-04T00:13:54.731Z,0.00
2022-09-04T00:14:54.740Z,0.00
2022-09-04T00:15:54.711Z,0.00
2022-09-04T00:16:54.826Z,0.00
2022-09-04T00:17:54.690Z,0.00
2022-09-04T00:18:54.699Z,0.00
2022-09-04T00:19:54.683Z,0.00
2022-09-04T00:20:54.679Z,0.00
2022-09-04T00:21:54.790Z,0.00
2022-09-04T00:22:54.631Z,0.00
2022-09-04T00:23:54.621Z,0.00
2022-09-04T00:24:54.634Z,0.00
2022-09-04T00:25:54.660Z,0.00
2022-09-04T00:26:54.587Z,0.00
2022-09-04T00:27:54.903Z,0.00
2022-09-04T00:28:54.561Z,0.00
2022-09-04T00:29:54.551Z,0.00
2022-09-04T00:30:54.593Z,0.00
2022-09-04T00:31:54.532Z,0.00
2022-09-04T00:32:54.519Z,0.00
2022-09-04T00:33:54.509Z,0.00
2022-09-04T00:34:54.538Z,0.00
2022-09-04T00:35:54.490Z,0.00
2022-09-04T00:36:54.477Z,0.00
2022-09-04T00:37:54.462Z,0.00
2022-09-04T00:38:54.576Z,0.00
2022-09-04T00:39:54.494Z,0.00
2022-09-04T00:40:54.449Z,0.00
2022-09-04T00:41:54.418Z,0.00
2022-09-04T00:42:54.627Z,0.00
2022-09-04T00:43:54.396Z,0.00
2022-09-04T00:44:54.426Z,0.00
2022-09-04T00:45:54.390Z,0.00
2022-09-04T00:46:54.364Z,0.00
2022-09-04T00:48:01.842Z,0.00
2022-09-04T00:48:54.342Z,0.00
2022-09-04T00:49:54.329Z,0.00
2022-09-04T00:50:54.342Z,0.00
2022-09-04T00:51:54.304Z,0.00
2022-09-04T00:52:58.238Z,0.00
2022-09-04T00:53:55.279Z,0.00
2022-09-04T00:54:54.277Z,0.00
2022-09-04T00:55:54.534Z,0.00
2022-09-04T00:56:54.248Z,0.00
2022-09-04T00:57:54.239Z,0.00
2022-09-04T00:58:54.249Z,0.00
2022-09-04T00:59:54.286Z,0.00
2022-09-04T01:00:54.257Z,0.00
2022-09-04T01:01:54.329Z,0.00
2022-09-04T01:02:54.197Z,0.00
2022-09-04T01:03:54.172Z,0.00
2022-09-04T01:04:54.161Z,0.00
2022-09-04T01:05:54.147Z,0.00
2022-09-04T01:06:56.426Z,0.00
2022-09-04T01:07:54.128Z,0.00
2022-09-04T01:08:56.378Z,0.00
2022-09-04T01:09:54.110Z,0.00
2022-09-04T01:10:54.628Z,0.00
2022-09-04T01:11:54.103Z,0.00
2022-09-04T01:12:54.087Z,0.00
2022-09-04T01:13:54.061Z,0.00
2022-09-04T01:14:54.078Z,0.00
2022-09-04T01:15:54.036Z,0.00
2022-09-04T01:16:54.293Z,0.00
2022-09-04T01:17:54.573Z,0.00
2022-09-04T01:18:54.019Z,0.00
2022-09-04T01:19:53.993Z,0.00
2022-09-04T01:20:54.004Z,0.00
2022-09-04T01:21:53.971Z,0.00
2022-09-04T01:22:53.959Z,0.00
2022-09-04T01:23:53.945Z,0.00
2022-09-04T01:24:53.954Z,0.00
2022-09-04T01:25:53.928Z,0.00
2022-09-04T01:26:57.593Z,0.00
2022-09-04T01:27:53.973Z,0.00
2022-09-04T01:28:53.895Z,0.00
2022-09-04T01:29:54.231Z,0.00
2022-09-04T01:30:53.866Z,0.00
2022-09-04T01:31:53.983Z,0.00
2022-09-04T01:32:53.842Z,0.00
2022-09-04T01:33:53.859Z,0.00
2022-09-04T01:34:53.863Z,0.00
2022-09-04T01:35:53.849Z,0.00
2022-09-04T01:36:53.807Z,0.00
2022-09-04T01:37:53.794Z,0.00
2022-09-04T01:38:53.777Z,0.00
2022-09-04T01:39:53.807Z,0.00
2022-09-04T01:40:53.781Z,0.00
2022-09-04T01:41:53.746Z,0.00
2022-09-04T01:42:53.737Z,0.00
2022-09-04T01:43:53.724Z,0.00
2022-09-04T01:44:53.714Z,0.00
2022-09-04T01:45:56.095Z,0.00
2022-09-04T01:46:54.647Z,0.00
2022-09-04T01:47:53.682Z,0.00
2022-09-04T01:48:53.666Z,0.00
2022-09-04T01:49:53.658Z,0.00
2022-09-04T01:50:53.758Z,0.00
2022-09-04T01:51:53.632Z,0.00
2022-09-04T01:52:53.634Z,0.00
2022-09-04T01:53:53.609Z,0.00
2022-09-04T01:54:53.598Z,0.00
2022-09-04T01:55:55.963Z,0.00
2022-09-04T01:56:53.579Z,0.00
2022-09-04T01:57:55.277Z,0.00
2022-09-04T01:58:53.559Z,0.00
2022-09-04T01:59:53.954Z,0.00
2022-09-04T02:00:53.722Z,0.00
2022-09-04T02:01:53.808Z,0.00
2022-09-04T02:02:53.653Z,0.00
2022-09-04T02:03:56.710Z,0.00
2022-09-04T02:04:53.490Z,0.00
2022-09-04T02:05:53.622Z,0.00
2022-09-04T02:06:53.463Z,0.00
2022-09-04T02:07:53.494Z,0.00
2022-09-04T02:08:53.440Z,0.00
2022-09-04T02:09:54.047Z,0.00
2022-09-04T02:10:53.421Z,0.00
2022-09-04T02:11:56.887Z,0.00
2022-09-04T02:12:53.438Z,0.00
2022-09-04T02:13:53.386Z,0.00
2022-09-04T02:14:53.376Z,0.00
2022-09-04T02:15:53.363Z,0.00
2022-09-04T02:16:53.353Z,0.00
2022-09-04T02:17:53.382Z,0.00
2022-09-04T02:18:53.821Z,0.00
2022-09-04T02:19:53.322Z,0.00
2022-09-04T02:20:53.308Z,0.00
2022-09-04T02:21:53.445Z,0.00
2022-09-04T02:22:54.176Z,0.00
2022-09-04T02:23:53.357Z,0.00
2022-09-04T02:24:53.297Z,0.00
2022-09-04T02:25:53.305Z,0.00
2022-09-04T02:26:57.856Z,0.00
2022-09-04T02:27:53.229Z,0.00
2022-09-04T02:28:53.219Z,0.00
2022-09-04T02:29:53.213Z,0.00
2022-09-04T02:30:54.411Z,0.00
2022-09-04T02:31:53.271Z,0.00
2022-09-04T02:32:53.248Z,0.00
2022-09-04T02:33:53.248Z,0.00
2022-09-04T02:34:53.146Z,0.00
2022-09-04T02:35:53.278Z,0.00
2022-09-04T02:36:53.128Z,0.00
2022-09-04T02:37:53.137Z,0.00
2022-09-04T02:38:53.102Z,0.00
2022-09-04T02:39:53.142Z,0.00
2022-09-04T02:40:53.079Z,0.00
2022-09-04T02:41:53.306Z,0.00
2022-09-04T02:42:53.066Z,0.00
2022-09-04T02:43:53.061Z,0.00
2022-09-04T02:44:53.031Z,0.00
2022-09-04T02:45:53.068Z,0.00
2022-09-04T02:46:53.031Z,0.00
2022-09-04T02:47:53.019Z,0.00
2022-09-04T02:48:53.082Z,0.00
2022-09-04T02:49:52.977Z,0.00
2022-09-04T02:50:53.845Z,0.00
2022-09-04T02:51:52.957Z,0.00
2022-09-04T02:52:52.944Z,0.00
2022-09-04T02:53:52.934Z,0.00
2022-09-04T02:54:52.917Z,0.00
2022-09-04T02:55:52.923Z,0.00
2022-09-04T02:56:53.277Z,0.00
2022-09-04T02:57:52.889Z,0.00
2022-09-04T02:58:52.874Z,0.00
2022-09-04T02:59:52.867Z,0.00
2022-09-04T03:00:52.942Z,0.00
2022-09-04T03:01:52.876Z,0.00
2022-09-04T03:02:52.830Z,0.00
2022-09-04T03:03:52.824Z,0.00
2022-09-04T03:04:52.821Z,0.00
2022-09-04T03:05:52.799Z,0.00
2022-09-04T03:06:52.782Z,0.00
2022-09-04T03:07:52.774Z,0.00
2022-09-04T03:08:53.413Z,0.00
2022-09-04T03:09:52.799Z,0.00
2022-09-04T03:10:52.740Z,0.00
2022-09-04T03:11:53.686Z,0.00
2022-09-04T03:12:52.712Z,0.00
2022-09-04T03:13:52.706Z,0.00
2022-09-04T03:14:52.717Z,0.00
2022-09-04T03:15:53.924Z,0.00
2022-09-04T03:16:52.667Z,0.00
2022-09-04T03:17:53.931Z,0.00
2022-09-04T03:18:52.645Z,0.00
2022-09-04T03:19:52.633Z,0.00
2022-09-04T03:20:52.655Z,0.00
2022-09-04T03:21:52.612Z,0.00
2022-09-04T03:22:52.664Z,0.00
2022-09-04T03:23:52.590Z,0.00
2022-09-04T03:24:52.576Z,0.00
2022-09-04T03:25:52.568Z,0.00
2022-09-04T03:26:55.420Z,0.00
2022-09-04T03:27:52.541Z,0.00
2022-09-04T03:28:52.571Z,0.00
2022-09-04T03:29:52.544Z,0.00
2022-09-04T03:30:52.509Z,0.00
2022-09-04T03:31:52.582Z,0.00
2022-09-04T03:32:52.483Z,0.00
2022-09-04T03:33:52.473Z,0.00
2022-09-04T03:34:52.476Z,0.00
2022-09-04T03:35:52.454Z,0.00
2022-09-04T03:36:52.439Z,0.00
2022-09-04T03:37:52.448Z,0.00
2022-09-04T03:38:52.414Z,0.00
2022-09-04T03:39:52.495Z,0.00
2022-09-04T03:40:52.394Z,0.00
2022-09-04T03:41:52.381Z,0.00
2022-09-04T03:42:52.387Z,0.00
2022-09-04T03:43:52.367Z,0.00
2022-09-04T03:44:52.525Z,0.00
2022-09-04T03:45:52.552Z,0.00
2022-09-04T03:46:52.433Z,0.00
2022-09-04T03:47:52.314Z,0.00
2022-09-04T03:48:52.303Z,0.00
2022-09-04T03:49:52.288Z,0.00
2022-09-04T03:50:52.281Z,0.00
2022-09-04T03:51:52.265Z,0.00
2022-09-04T03:52:53.810Z,0.00
2022-09-04T03:53:52.247Z,0.00
2022-09-04T03:54:52.230Z,0.00
2022-09-04T03:55:52.225Z,0.00
2022-09-04T03:56:52.214Z,0.00
2022-09-04T03:57:52.214Z,0.00
2022-09-04T03:58:52.186Z,0.00
2022-09-04T03:59:52.175Z,0.00
2022-09-04T04:00:52.238Z,0.00
2022-09-04T04:01:52.153Z,0.00
2022-09-04T04:02:52.336Z,0.00
2022-09-04T04:03:52.131Z,0.00
2022-09-04T04:04:52.119Z,0.00
2022-09-04T04:05:52.108Z,0.00
2022-09-04T04:06:52.094Z,0.00
2022-09-04T04:07:52.105Z,0.00
2022-09-04T04:08:52.076Z,0.00
2022-09-04T04:09:52.060Z,0.00
2022-09-04T04:10:52.050Z,0.00
2022-09-04T04:11:52.041Z,0.00
2022-09-04T04:12:52.041Z,0.00
2022-09-04T04:13:52.079Z,0.00
2022-09-04T04:14:52.009Z,0.00
2022-09-04T04:15:52.057Z,0.00
2022-09-04T04:16:56.151Z,5.62
2022-09-04T04:17:52.089Z,5.62
2022-09-04T04:18:51.971Z,5.62
2022-09-04T04:19:51.958Z,5.62
2022-09-04T04:20:51.952Z,5.62
2022-09-04T04:21:51.933Z,5.62
2022-09-04T04:22:51.914Z,5.62
2022-09-04T04:23:52.288Z,5.62
2022-09-04T04:24:51.891Z,11.25
2022-09-04T04:25:52.578Z,11.25
2022-09-04T04:26:54.852Z,11.25
2022-09-04T04:27:51.856Z,11.25
2022-09-04T04:28:51.866Z,11.25
2022-09-04T04:29:51.839Z,11.25
2022-09-04T04:30:52.702Z,16.88
2022-09-04T04:31:51.814Z,16.88
2022-09-04T04:32:51.805Z,16.88
2022-09-04T04:33:51.826Z,16.88
2022-09-04T04:34:51.855Z,16.88
2022-09-04T04:35:51.778Z,22.50
2022-09-04T04:36:51.826Z,22.50
2022-09-04T04:37:51.855Z,22.50
2022-09-04T04:38:51.739Z,22.50
2022-09-04T04:39:51.784Z,22.50
2022-09-04T04:40:51.716Z,28.12
2022-09-04T04:41:51.729Z,28.12
2022-09-04T04:42:51.691Z,28.12
2022-09-04T04:43:51.686Z,28.12
2022-09-04T04:44:51.671Z,33.75
2022-09-04T04:45:51.665Z,33.75
2022-09-04T04:46:51.777Z,33.75
2022-09-04T04:47:51.671Z,33.75
2022-09-04T04:48:51.627Z,39.38
2022-09-04T04:49:51.614Z,39.38
2022-09-04T04:50:51.604Z,39.38
2022-09-04T04:51:53.467Z,39.38
2022-09-04T04:52:51.581Z,45.00
2022-09-04T04:53:51.572Z,45.00
2022-09-04T04:54:51.562Z,45.00
2022-09-04T04:55:51.892Z,45.00
2022-09-04T04:56:51.543Z,50.62
2022-09-04T04:57:51.531Z,50.62
2022-09-04T04:58:51.511Z,50.62
2022-09-04T04:59:51.504Z,50.62
2022-09-04T05:00:51.508Z,56.25
2022-09-04T05:01:51.642Z,56.25
2022-09-04T05:02:51.580Z,56.25
2022-09-04T05:03:51.458Z,56.25
2022-09-04T05:04:51.446Z,56.25
2022-09-04T05:05:51.451Z,61.88
2022-09-04T05:06:51.530Z,61.88
2022-09-04T05:07:51.409Z,61.88
2022-09-04T05:08:51.399Z,61.88
2022-09-04T05:09:51.392Z,67.50
2022-09-04T05:10:51.447Z,67.50
2022-09-04T05:11:51.385Z,67.50
2022-09-04T05:12:51.389Z,67.50
2022-09-04T05:13:51.689Z,73.12
2022-09-04T05:14:51.335Z,73.12
2022-09-04T05:16:08.321Z,73.12
2022-09-04T05:16:55.840Z,78.75
2022-09-04T05:17:51.295Z,78.75
2022-09-04T05:18:51.286Z,84.38
2022-09-04T05:19:53.593Z,90.00
2022-09-04T05:20:51.263Z,90.00
2022-09-04T05:21:51.254Z,95.62
2022-09-04T05:22:51.244Z,95.62
2022-09-04T05:23:51.468Z,101.25
2022-09-04T05:24:54.158Z,106.88
2022-09-04T05:25:51.207Z,101.25
2022-09-04T05:26:51.196Z,106.88
2022-09-04T05:27:51.235Z,112.50
2022-09-04T05:28:51.173Z,112.50
2022-09-04T05:29:51.212Z,118.12
2022-09-04T05:30:51.185Z,123.75
2022-09-04T05:31:51.134Z,123.75
2022-09-04T05:32:51.128Z,129.38
2022-09-04T05:33:51.115Z,135.00
2022-09-04T05:34:51.102Z,140.62
2022-09-04T05:35:53.019Z,140.62
2022-09-04T05:36:51.080Z,146.25
2022-09-04T05:37:51.063Z,151.88
2022-09-04T05:38:51.719Z,151.88
2022-09-04T05:39:51.216Z,151.88
2022-09-04T05:40:51.035Z,157.50
2022-09-04T05:41:51.025Z,163.12
2022-09-04T05:42:51.013Z,168.75
2022-09-04T05:43:51.022Z,174.38
2022-09-04T05:44:51.333Z,180.00
2022-09-04T05:45:50.997Z,185.62
2022-09-04T05:46:51.857Z,191.25
2022-09-04T05:47:50.954Z,196.88
2022-09-04T05:48:50.944Z,196.88
2022-09-04T05:49:50.947Z,196.88
2022-09-04T05:50:50.918Z,202.50
2022-09-04T05:51:50.915Z,208.12
2022-09-04T05:52:50.900Z,219.38
2022-09-04T05:53:55.465Z,219.38
2022-09-04T05:54:50.880Z,230.62
2022-09-04T05:55:50.992Z,241.88
2022-09-04T05:56:50.851Z,247.50
2022-09-04T05:57:50.845Z,241.88
2022-09-04T05:58:50.832Z,236.25
2022-09-04T05:59:52.042Z,247.50
2022-09-04T06:00:50.812Z,258.75
2022-09-04T06:01:52.259Z,258.75
2022-09-04T06:02:50.792Z,258.75
2022-09-04T06:03:50.770Z,258.75
2022-09-04T06:04:50.782Z,253.12
2022-09-04T06:05:50.754Z,253.12
2022-09-04T06:06:50.741Z,270.00
2022-09-04T06:07:50.728Z,292.50
2022-09-04T06:08:50.738Z,298.12
2022-09-04T06:09:50.706Z,315.00
2022-09-04T06:10:50.756Z,315.00
2022-09-04T06:11:50.683Z,331.88
2022-09-04T06:12:50.673Z,337.50
2022-09-04T06:13:50.679Z,320.62
2022-09-04T06:14:50.654Z,360.00
2022-09-04T06:15:50.692Z,376.88
2022-09-04T06:16:50.748Z,416.25
2022-09-04T06:17:50.618Z,455.62
2022-09-04T06:18:50.625Z,511.88
2022-09-04T06:19:50.590Z,585.00
2022-09-04T06:20:50.585Z,618.75
2022-09-04T06:21:50.572Z,691.88
2022-09-04T06:22:55.056Z,748.12
2022-09-04T06:23:51.763Z,770.62
2022-09-04T06:24:50.540Z,613.12
2022-09-04T06:25:50.524Z,483.75
2022-09-04T06:26:50.517Z,528.75
2022-09-04T06:27:50.524Z,562.50
2022-09-04T06:28:50.496Z,461.25
2022-09-04T06:29:50.576Z,433.12
2022-09-04T06:30:50.527Z,371.25
2022-09-04T06:31:50.460Z,348.75
2022-09-04T06:32:53.143Z,331.88
2022-09-04T06:33:50.435Z,315.00
2022-09-04T06:34:50.428Z,326.25
2022-09-04T06:35:51.201Z,354.38
2022-09-04T06:36:50.427Z,444.38
2022-09-04T06:37:50.436Z,421.88
2022-09-04T06:38:50.382Z,438.75
2022-09-04T06:39:50.402Z,461.25
2022-09-04T06:40:50.360Z,624.38
2022-09-04T06:41:50.376Z,517.50
2022-09-04T06:42:50.340Z,855.00
2022-09-04T06:43:50.321Z,922.50
2022-09-04T06:44:50.315Z,973.12
2022-09-04T06:45:50.300Z,939.38
2022-09-04T06:46:50.328Z,607.50
2022-09-04T06:47:50.299Z,843.75
2022-09-04T06:50:27.033Z,1102.50
2022-09-04T06:51:27.374Z,1113.75
2022-09-04T06:52:27.021Z,1074.38
2022-09-04T06:53:27.001Z,1040.62
2022-09-04T06:54:27.008Z,1035.00
2022-09-04T06:55:27.973Z,1023.75
2022-09-04T06:56:26.986Z,1018.12
2022-09-04T06:57:27.018Z,1023.75
2022-09-04T06:58:26.950Z,1029.38
2022-09-04T06:59:27.270Z,1051.88
2022-09-04T07:00:26.918Z,1080.00
2022-09-04T07:01:27.933Z,1085.62
2022-09-04T07:02:27.200Z,1102.50
2022-09-04T07:03:26.886Z,1119.38
2022-09-04T07:04:26.877Z,1147.50
2022-09-04T07:05:26.864Z,1192.50
2022-09-04T07:06:28.577Z,1209.38
2022-09-04T07:07:26.867Z,1231.88
2022-09-04T07:08:26.833Z,1254.38
2022-09-04T07:09:26.820Z,1271.25
2022-09-04T07:10:26.809Z,1282.50
2022-09-04T07:11:26.957Z,1310.62
2022-09-04T07:12:27.068Z,1327.50
2022-09-04T07:13:26.779Z,1338.75
2022-09-04T07:14:26.762Z,1344.38
2022-09-04T07:15:26.805Z,1350.00
2022-09-04T07:16:28.661Z,1366.88
2022-09-04T07:17:26.731Z,1372.50
2022-09-04T07:18:26.738Z,1395.00
2022-09-04T07:19:26.714Z,1423.12
2022-09-04T07:20:26.695Z,1434.38
2022-09-04T07:21:28.609Z,1445.62
2022-09-04T07:22:26.680Z,1473.75
2022-09-04T07:23:26.667Z,1473.75
2022-09-04T07:24:26.657Z,1490.62
2022-09-04T07:25:26.686Z,1496.25
2022-09-04T07:26:26.631Z,1518.75
2022-09-04T07:27:26.622Z,1535.62
2022-09-04T07:28:26.613Z,1552.50
2022-09-04T07:29:26.667Z,1563.75
2022-09-04T07:30:26.590Z,1563.75
2022-09-04T07:31:26.634Z,1586.25
2022-09-04T07:32:26.607Z,1591.88
2022-09-04T07:33:26.705Z,1597.50
2022-09-04T07:34:26.904Z,1620.00
2022-09-04T07:35:26.545Z,1653.75
2022-09-04T07:36:29.718Z,1693.12
2022-09-04T07:37:27.515Z,1732.50
2022-09-04T07:38:26.504Z,1760.62
2022-09-04T07:39:27.252Z,1788.75
2022-09-04T07:40:27.981Z,1816.88
2022-09-04T07:41:26.473Z,1833.75
2022-09-04T07:42:26.463Z,1856.25
2022-09-04T07:43:26.455Z,1867.50
2022-09-04T07:44:26.456Z,1873.12
2022-09-04T07:45:26.434Z,1856.25
2022-09-04T07:46:26.534Z,1856.25
2022-09-04T07:47:26.412Z,1895.62
2022-09-04T07:48:26.581Z,1923.75
2022-09-04T07:49:26.403Z,1946.25
2022-09-04T07:50:26.733Z,1968.75
2022-09-04T07:51:26.369Z,1996.88
2022-09-04T07:52:26.357Z,1996.88
2022-09-04T07:53:26.345Z,2002.50
2022-09-04T07:54:26.611Z,2019.38
2022-09-04T07:55:26.324Z,2013.75
2022-09-04T07:56:26.317Z,2008.12
2022-09-04T07:57:26.313Z,1996.88
2022-09-04T07:58:26.358Z,1946.25
2022-09-04T07:59:26.306Z,1625.62
2022-09-04T08:00:26.270Z,1906.88
2022-09-04T08:01:26.320Z,2058.75
2022-09-04T08:02:26.266Z,2092.50
2022-09-04T08:03:26.548Z,2137.50
2022-09-04T08:04:26.271Z,2137.50
2022-09-04T08:05:26.219Z,2205.00
2022-09-04T08:06:26.206Z,2238.75
2022-09-04T08:07:26.850Z,2233.12
2022-09-04T08:08:26.363Z,2199.38
2022-09-04T08:09:26.200Z,2025.00
2022-09-04T08:10:26.163Z,2092.50
2022-09-04T08:11:26.157Z,2188.12
2022-09-04T08:12:26.159Z,2193.75
2022-09-04T08:13:32.363Z,2176.88
2022-09-04T08:14:26.163Z,2165.62
2022-09-04T08:15:26.165Z,2176.88
2022-09-04T08:16:26.148Z,2199.38
2022-09-04T08:17:26.096Z,2238.75
2022-09-04T08:18:26.144Z,2255.62
2022-09-04T08:19:26.075Z,2278.12
2022-09-04T08:20:26.230Z,2295.00
2022-09-04T08:21:26.053Z,2306.25
2022-09-04T08:22:28.322Z,2311.88
2022-09-04T08:23:26.051Z,2300.62
2022-09-04T08:24:27.053Z,2255.62
2022-09-04T08:25:26.006Z,2244.38
2022-09-04T08:26:26.003Z,2300.62
2022-09-04T08:27:25.994Z,2323.12
2022-09-04T08:28:26.167Z,2356.88
2022-09-04T08:29:25.971Z,2385.00
2022-09-04T08:30:25.974Z,2379.38
2022-09-04T08:31:26.019Z,2407.50
2022-09-04T08:32:26.655Z,2407.50
2022-09-04T08:33:26.949Z,2401.88
2022-09-04T08:34:25.919Z,2323.12
2022-09-04T08:35:25.908Z,2238.75
2022-09-04T08:36:25.899Z,2255.62
2022-09-04T08:37:26.219Z,2356.88
2022-09-04T08:38:26.018Z,2182.50
2022-09-04T08:39:27.383Z,2328.75
2022-09-04T08:40:25.896Z,2390.62
2022-09-04T08:41:25.932Z,2373.75
2022-09-04T08:42:25.832Z,2418.75
2022-09-04T08:43:25.828Z,2458.12
2022-09-04T08:44:27.518Z,2508.75
2022-09-04T08:45:25.835Z,2475.00
2022-09-04T08:46:28.762Z,2486.25
2022-09-04T08:47:25.784Z,2368.12
2022-09-04T08:48:26.032Z,2497.50
2022-09-04T08:49:25.764Z,2525.62
2022-09-04T08:50:25.771Z,2548.12
2022-09-04T08:51:25.743Z,2559.38
2022-09-04T08:52:25.847Z,2593.12
2022-09-04T08:53:37.870Z,2615.62
2022-09-04T08:54:25.723Z,2497.50
2022-09-04T08:55:25.704Z,2458.12
2022-09-04T08:56:26.036Z,2491.88
2022-09-04T08:57:25.684Z,2469.38
2022-09-04T08:58:25.921Z,2514.38
2022-09-04T08:59:25.661Z,2548.12
2022-09-04T09:00:25.649Z,2548.12
2022-09-04T09:01:25.735Z,2593.12
2022-09-04T09:02:25.732Z,2649.38
2022-09-04T09:03:25.646Z,2638.12
2022-09-04T09:04:25.607Z,2649.38
2022-09-04T09:05:25.595Z,2688.75
2022-09-04T09:06:25.608Z,2700.00
2022-09-04T09:07:25.582Z,2666.25
2022-09-04T09:08:29.710Z,2711.25
2022-09-04T09:09:26.566Z,2761.88
2022-09-04T09:10:25.552Z,2761.88
2022-09-04T09:11:25.560Z,2761.88
2022-09-04T09:12:25.552Z,2773.12
2022-09-04T09:13:25.531Z,2565.00
2022-09-04T09:14:25.507Z,2503.12
2022-09-04T09:15:25.497Z,2553.75
2022-09-04T09:16:25.545Z,2536.88
2022-09-04T09:17:29.989Z,2570.62
2022-09-04T09:18:26.468Z,2598.75
2022-09-04T09:19:25.481Z,2733.75
2022-09-04T09:20:25.449Z,2728.12
2022-09-04T09:21:25.442Z,2711.25
2022-09-04T09:22:25.446Z,2739.38
2022-09-04T09:23:25.480Z,2812.50
2022-09-04T09:24:25.413Z,2835.00
2022-09-04T09:25:25.397Z,2745.00
2022-09-04T09:26:26.444Z,2700.00
2022-09-04T09:27:25.404Z,2694.38
2022-09-04T09:28:25.368Z,2610.00
2022-09-04T09:29:25.363Z,2615.62
2022-09-04T09:30:25.467Z,2626.88
2022-09-04T09:31:25.338Z,2846.25
2022-09-04T09:32:25.384Z,2806.88
2022-09-04T09:33:25.454Z,2750.62
2022-09-04T09:34:25.309Z,2790.00
2022-09-04T09:35:25.338Z,2823.75
2022-09-04T09:36:25.296Z,2638.12
2022-09-04T09:37:25.504Z,2728.12
2022-09-04T09:38:25.287Z,2829.38
2022-09-04T09:39:25.282Z,2857.50
2022-09-04T09:40:25.281Z,2812.50
2022-09-04T09:41:25.244Z,2801.25
2022-09-04T09:42:25.267Z,2846.25
2022-09-04T09:43:25.765Z,2801.25
2022-09-04T09:44:25.221Z,2761.88
2022-09-04T09:45:25.208Z,2739.38
2022-09-04T09:46:25.224Z,2812.50
2022-09-04T09:47:25.321Z,2801.25
2022-09-04T09:48:25.180Z,2756.25
2022-09-04T09:49:25.174Z,2801.25
2022-09-04T09:50:25.157Z,2790.00
2022-09-04T09:51:31.454Z,2733.75
2022-09-04T09:52:25.136Z,2705.62
2022-09-04T09:53:25.190Z,2739.38
2022-09-04T09:54:25.119Z,2818.12
2022-09-04T09:55:25.113Z,2784.38
2022-09-04T09:56:25.111Z,2863.12
2022-09-04T09:57:27.313Z,2835.00
2022-09-04T09:58:26.075Z,2846.25
2022-09-04T09:59:25.088Z,2812.50
2022-09-04T10:00:25.891Z,2778.75
2022-09-04T10:01:25.215Z,2823.75
2022-09-04T10:02:25.129Z,2868.75
2022-09-04T10:03:25.128Z,2891.25
2022-09-04T10:04:25.049Z,2857.50
2022-09-04T10:05:25.016Z,2846.25
2022-09-04T10:06:25.006Z,2829.38
2022-09-04T10:07:25.017Z,2773.12
2022-09-04T10:08:35.479Z,2790.00
2022-09-04T10:09:25.968Z,2795.62
2022-09-04T10:10:24.971Z,2790.00
2022-09-04T10:11:24.958Z,2700.00
2022-09-04T10:12:24.968Z,2711.25
2022-09-04T10:13:25.009Z,2818.12
2022-09-04T10:14:25.317Z,2818.12
2022-09-04T10:15:24.920Z,2784.38
2022-09-04T10:16:24.972Z,2761.88
2022-09-04T10:17:24.915Z,2745.00
2022-09-04T10:18:24.901Z,2846.25
2022-09-04T10:19:24.883Z,2829.38
2022-09-04T10:20:24.878Z,2722.50
2022-09-04T10:21:24.862Z,2739.38
2022-09-04T10:22:24.865Z,2773.12
2022-09-04T10:23:25.195Z,2801.25
2022-09-04T10:24:24.830Z,2761.88
2022-09-04T10:25:24.826Z,2745.00
2022-09-04T10:26:24.808Z,2778.75
2022-09-04T10:27:24.821Z,2863.12
2022-09-04T10:28:24.800Z,2767.50
2022-09-04T10:29:24.786Z,2761.88
2022-09-04T10:30:24.829Z,2756.25
2022-09-04T10:31:24.781Z,2722.50
2022-09-04T10:32:24.756Z,2615.62
2022-09-04T10:33:24.946Z,2649.38
2022-09-04T10:34:24.737Z,2851.88
2022-09-04T10:35:24.762Z,2863.12
2022-09-04T10:36:24.858Z,2598.75
2022-09-04T10:37:24.707Z,2677.50
2022-09-04T10:38:24.695Z,2649.38
2022-09-04T10:39:24.699Z,2705.62
2022-09-04T10:40:24.795Z,2801.25
2022-09-04T10:41:24.669Z,2767.50
2022-09-04T10:42:24.659Z,2728.12
2022-09-04T10:43:24.788Z,2716.88
2022-09-04T10:44:24.637Z,2655.00
2022-09-04T10:45:24.656Z,2632.50
2022-09-04T10:46:24.655Z,2660.62
2022-09-04T10:47:24.612Z,2728.12
2022-09-04T10:48:28.506Z,2722.50
2022-09-04T10:49:24.608Z,2733.75
2022-09-04T10:50:24.582Z,2761.88
2022-09-04T10:51:24.615Z,2880.00
2022-09-04T10:52:24.573Z,2801.25
2022-09-04T10:53:24.650Z,2829.38
2022-09-04T10:54:24.543Z,2829.38
2022-09-04T10:55:24.543Z,2778.75
2022-09-04T10:56:24.524Z,2655.00
2022-09-04T10:57:24.564Z,2632.50
2022-09-04T10:58:24.508Z,2615.62
2022-09-04T10:59:24.514Z,2587.50
2022-09-04T11:00:24.487Z,2604.38
2022-09-04T11:01:24.593Z,2621.25
2022-09-04T11:02:24.505Z,2643.75
2022-09-04T11:03:24.561Z,2683.12
2022-09-04T11:04:24.458Z,2593.12
2022-09-04T11:05:24.441Z,2385.00
2022-09-04T11:06:24.463Z,2683.12
2022-09-04T11:07:28.163Z,2823.75
2022-09-04T11:08:24.415Z,2767.50
2022-09-04T11:09:24.464Z,2379.38
2022-09-04T11:10:24.412Z,2801.25
2022-09-04T11:11:24.405Z,2745.00
2022-09-04T11:12:24.378Z,2643.75
2022-09-04T11:13:24.366Z,2576.25
2022-09-04T11:14:24.916Z,2570.62
2022-09-04T11:15:24.345Z,2643.75
2022-09-04T11:16:24.458Z,2767.50
2022-09-04T11:17:24.617Z,2255.62
2022-09-04T11:18:24.350Z,855.00
2022-09-04T11:19:24.326Z,1243.12
2022-09-04T11:20:24.320Z,2790.00
2022-09-04T11:21:24.287Z,2733.75
2022-09-04T11:22:24.281Z,787.50
2022-09-04T11:23:24.364Z,736.88
2022-09-04T11:24:24.263Z,787.50
2022-09-04T11:25:24.265Z,855.00
2022-09-04T11:26:24.265Z,2458.12
2022-09-04T11:27:24.314Z,2424.38
2022-09-04T11:28:24.221Z,2621.25
2022-09-04T11:29:24.211Z,2514.38
2022-09-04T11:30:24.226Z,945.00
2022-09-04T11:31:24.433Z,2486.25
2022-09-04T11:32:24.182Z,2604.38
2022-09-04T11:33:24.365Z,2559.38
2022-09-04T11:34:24.164Z,2542.50
2022-09-04T11:35:24.167Z,2632.50
2022-09-04T11:36:24.145Z,2711.25
2022-09-04T11:37:24.137Z,2733.75
2022-09-04T11:38:24.119Z,2671.88
2022-09-04T11:39:24.154Z,2649.38
2022-09-04T11:40:24.132Z,2733.75
2022-09-04T11:41:24.094Z,2700.00
2022-09-04T11:42:24.094Z,2694.38
2022-09-04T11:43:24.081Z,2745.00
2022-09-04T11:44:24.072Z,2705.62
2022-09-04T11:45:24.103Z,2677.50
2022-09-04T11:46:24.046Z,2565.00
2022-09-04T11:47:24.033Z,2458.12
2022-09-04T11:48:24.059Z,2463.75
2022-09-04T11:49:24.015Z,2565.00
2022-09-04T11:50:24.011Z,2469.38
2022-09-04T11:51:24.001Z,2373.75
2022-09-04T11:52:23.991Z,2604.38
2022-09-04T11:53:24.146Z,2593.12
2022-09-04T11:54:23.971Z,2497.50
2022-09-04T11:55:23.955Z,2486.25
2022-09-04T11:56:23.955Z,2525.62
2022-09-04T11:57:23.953Z,2626.88
2022-09-04T11:58:23.930Z,2638.12
2022-09-04T11:59:23.917Z,2677.50
2022-09-04T12:00:23.921Z,2677.50
2022-09-04T12:01:23.902Z,2621.25
2022-09-04T12:02:23.997Z,2722.50
2022-09-04T12:03:24.035Z,2784.38
2022-09-04T12:04:23.945Z,2790.00
2022-09-04T12:05:23.867Z,2750.62
2022-09-04T12:06:23.869Z,2677.50
2022-09-04T12:07:23.840Z,2722.50
2022-09-04T12:08:23.834Z,2621.25
2022-09-04T12:09:23.857Z,2565.00
2022-09-04T12:10:23.843Z,2581.88
2022-09-04T12:11:23.806Z,2576.25
2022-09-04T12:12:23.809Z,2683.12
2022-09-04T12:13:23.793Z,1957.50
2022-09-04T12:14:23.802Z,1513.12
2022-09-04T12:15:23.776Z,2604.38
2022-09-04T12:16:24.087Z,2621.25
2022-09-04T12:17:23.750Z,2570.62
2022-09-04T12:18:23.753Z,2390.62
2022-09-04T12:19:23.750Z,2413.12
2022-09-04T12:20:23.808Z,2491.88
2022-09-04T12:21:23.711Z,911.25
2022-09-04T12:22:23.705Z,562.50
2022-09-04T12:23:23.716Z,568.12
2022-09-04T12:24:23.701Z,663.75
2022-09-04T12:25:23.676Z,1659.38
2022-09-04T12:26:23.663Z,720.00
2022-09-04T12:27:23.652Z,624.38
2022-09-04T12:28:23.644Z,1597.50
2022-09-04T12:29:23.669Z,2345.62
2022-09-04T12:30:23.632Z,2317.50
2022-09-04T12:31:23.625Z,2154.38
2022-09-04T12:32:23.599Z,742.50
2022-09-04T12:33:23.592Z,2250.00
2022-09-04T12:34:24.585Z,2165.62
2022-09-04T12:35:23.570Z,2233.12
2022-09-04T12:36:23.567Z,2289.38
2022-09-04T12:37:23.628Z,2317.50
2022-09-04T12:38:23.547Z,2356.88